createdAt,value
2023-01-07T00:02:14.280Z,28.50
2023-01-07T00:04:42.773Z,30.00
2023-01-07T00:07:12.028Z,30.97
2023-01-07T00:09:40.552Z,31.73
2023-01-07T00:12:10.427Z,31.17
2023-01-07T00:14:38.853Z,30.83
2023-01-07T00:17:07.289Z,31.43
2023-01-07T00:19:35.873Z,30.53
2023-01-07T00:22:04.314Z,32.47
2023-01-07T00:24:32.774Z,31.73
2023-01-07T00:27:01.284Z,33.07
2023-01-07T00:29:31.113Z,33.70
2023-01-07T00:31:59.562Z,32.03
2023-01-07T00:34:28.348Z,32.30
2023-01-07T00:37:17.578Z,35.80
2023-01-07T00:39:46.085Z,34.00
2023-01-07T00:42:31.985Z,33.97
2023-01-07T00:45:01.836Z,33.83
2023-01-07T00:47:31.385Z,34.00
2023-01-07T00:49:59.859Z,34.17
2023-01-07T00:52:28.620Z,35.43
2023-01-07T00:54:59.083Z,37.33
2023-01-07T00:57:27.512Z,36.03
2023-01-07T00:59:55.990Z,35.63
2023-01-07T01:02:25.882Z,36.27
2023-01-07T01:04:54.394Z,37.07
2023-01-07T01:07:22.864Z,36.57
2023-01-07T01:09:51.387Z,36.90
2023-01-07T01:12:19.842Z,37.37
2023-01-07T01:14:48.393Z,37.63
2023-01-07T01:17:16.836Z,38.23
2023-01-07T01:19:46.715Z,37.30
2023-01-07T01:22:15.412Z,38.07
2023-01-07T01:24:43.891Z,39.20
2023-01-07T01:27:12.356Z,39.47
2023-01-07T01:29:40.831Z,39.43
2023-01-07T01:32:09.268Z,38.77
2023-01-07T01:34:37.749Z,38.40
2023-01-07T01:37:07.658Z,40.67
2023-01-07T01:39:36.105Z,42.07
2023-01-07T01:42:04.580Z,41.27
2023-01-07T01:44:37.812Z,41.43
2023-01-07T01:47:07.902Z,42.30
2023-01-07T01:49:37.698Z,42.57
2023-01-07T01:52:09.197Z,42.73
2023-01-07T01:54:37.679Z,42.97
2023-01-07T01:57:07.078Z,44.47
2023-01-07T01:59:37.511Z,43.80
2023-01-07T02:02:06.100Z,44.00
2023-01-07T02:04:35.270Z,44.33
2023-01-07T02:07:05.590Z,44.73
2023-01-07T02:09:35.572Z,43.97
2023-01-07T02:12:11.021Z,43.50
2023-01-07T02:14:48.252Z,44.43
2023-01-07T02:17:22.381Z,41.80
2023-01-07T02:20:08.553Z,43.50
2023-01-07T02:22:54.676Z,42.83
2023-01-07T02:25:37.338Z,44.73
2023-01-07T02:28:18.284Z,45.80
2023-01-07T02:31:01.559Z,44.87
2023-01-07T02:33:39.949Z,43.90
2023-01-07T02:36:13.495Z,44.43
2023-01-07T02:38:46.270Z,45.43
2023-01-07T02:41:19.833Z,44.10
2023-01-07T02:43:54.530Z,44.83
2023-01-07T02:46:25.424Z,45.00
2023-01-07T02:48:55.312Z,45.80
2023-01-07T02:51:32.928Z,45.20
2023-01-07T02:54:01.764Z,43.30
2023-01-07T02:56:33.922Z,45.23
2023-01-07T02:59:29.364Z,44.20
2023-01-07T03:02:06.972Z,41.73
2023-01-07T03:05:02.387Z,42.70
2023-01-07T03:07:37.919Z,42.23
2023-01-07T03:10:10.430Z,42.43
2023-01-07T03:12:42.986Z,45.77
2023-01-07T03:15:13.633Z,43.70
2023-01-07T03:17:43.428Z,43.00
2023-01-07T03:20:13.864Z,43.87
2023-01-07T03:22:45.012Z,43.97
2023-01-07T03:25:15.244Z,42.37
2023-01-07T03:27:44.662Z,44.07
2023-01-07T03:30:15.572Z,45.77
2023-01-07T03:32:45.065Z,43.80
2023-01-07T03:35:13.554Z,45.77
2023-01-07T03:37:43.882Z,45.43
2023-01-07T03:40:14.226Z,43.47
2023-01-07T03:42:42.357Z,44.73
2023-01-07T03:45:13.202Z,43.13
2023-01-07T03:47:43.210Z,44.77
2023-01-07T03:50:11.705Z,42.87
2023-01-07T03:52:40.188Z,43.83
2023-01-07T03:55:09.022Z,41.67
2023-01-07T03:57:38.887Z,42.23
2023-01-07T04:00:09.007Z,41.07
2023-01-07T04:02:37.473Z,39.47
2023-01-07T04:05:06.279Z,40.20
2023-01-07T04:07:34.856Z,38.80
2023-01-07T04:10:03.328Z,40.70
2023-01-07T04:12:31.762Z,39.03
2023-01-07T04:15:02.174Z,38.63
2023-01-07T04:17:30.625Z,37.57
2023-01-07T04:19:59.098Z,37.37
2023-01-07T04:22:27.620Z,37.97
2023-01-07T04:24:56.064Z,37.87
2023-01-07T04:27:24.542Z,37.07
2023-01-07T04:29:53.009Z,37.27
2023-01-07T04:32:22.932Z,37.47
2023-01-07T04:34:51.407Z,36.73
2023-01-07T04:37:19.892Z,37.20
2023-01-07T04:39:48.299Z,36.80
2023-01-07T04:42:16.751Z,36.60
2023-01-07T04:44:45.296Z,35.87
2023-01-07T04:47:14.077Z,35.20
2023-01-07T04:49:43.935Z,37.50
2023-01-07T04:52:12.420Z,35.77
2023-01-07T04:54:40.890Z,37.13
2023-01-07T04:57:09.790Z,36.33
2023-01-07T04:59:38.277Z,36.73
2023-01-07T05:02:06.792Z,36.17
2023-01-07T05:04:35.341Z,36.50
2023-01-07T05:07:05.281Z,36.97
2023-01-07T05:09:33.774Z,35.57
2023-01-07T05:12:02.220Z,34.40
2023-01-07T05:14:30.756Z,33.50
2023-01-07T05:16:59.247Z,35.87
2023-01-07T05:19:27.740Z,34.70
2023-01-07T05:21:56.227Z,34.13
2023-01-07T05:24:26.082Z,35.37
2023-01-07T05:26:54.549Z,34.20
2023-01-07T05:29:23.069Z,35.17
2023-01-07T05:31:51.507Z,36.77
2023-01-07T05:34:20.013Z,37.20
2023-01-07T05:36:48.513Z,35.33
2023-01-07T05:39:16.960Z,35.10
2023-01-07T05:41:46.840Z,36.73
2023-01-07T05:44:15.350Z,34.77
2023-01-07T05:46:43.931Z,36.00
2023-01-07T05:49:12.383Z,36.03
2023-01-07T05:51:42.058Z,37.40
2023-01-07T05:54:10.552Z,35.27
2023-01-07T05:56:38.963Z,35.53
2023-01-07T05:59:08.872Z,35.93
2023-01-07T06:01:37.339Z,36.87
2023-01-07T06:04:05.780Z,36.23
2023-01-07T06:06:34.270Z,36.07
2023-01-07T06:09:02.737Z,36.73
2023-01-07T06:11:31.179Z,35.40
2023-01-07T06:13:59.651Z,35.33
2023-01-07T06:16:29.519Z,36.83
2023-01-07T06:18:57.967Z,38.50
2023-01-07T06:21:26.601Z,36.73
2023-01-07T06:23:55.067Z,36.80
2023-01-07T06:26:23.700Z,38.13
2023-01-07T06:28:53.268Z,36.93
2023-01-07T06:31:21.811Z,36.70
2023-01-07T06:33:51.731Z,34.47
2023-01-07T06:36:20.224Z,32.93
2023-01-07T06:38:48.661Z,32.07
2023-01-07T06:41:17.139Z,31.00
2023-01-07T06:43:45.699Z,31.67
2023-01-07T06:46:14.612Z,32.17
2023-01-07T06:48:43.103Z,32.17
2023-01-07T06:51:12.987Z,32.90
2023-01-07T06:53:41.507Z,33.43
2023-01-07T06:56:09.985Z,31.13
2023-01-07T06:58:38.458Z,35.03
2023-01-07T07:01:07.171Z,34.07
2023-01-07T07:03:35.737Z,34.23
2023-01-07T07:06:04.300Z,31.60
2023-01-07T07:08:34.129Z,31.90
2023-01-07T07:11:02.600Z,35.20
2023-01-07T07:13:31.072Z,37.47
2023-01-07T07:15:59.598Z,40.20
2023-01-07T07:18:28.102Z,39.77
2023-01-07T07:20:56.787Z,38.73
2023-01-07T07:23:25.218Z,40.77
2023-01-07T07:25:55.092Z,41.23
2023-01-07T07:28:23.641Z,38.27
2023-01-07T07:30:52.137Z,38.87
2023-01-07T07:33:20.645Z,40.43
2023-01-07T07:35:49.532Z,35.40
2023-01-07T07:38:19.173Z,35.53
2023-01-07T07:40:47.678Z,38.00
2023-01-07T07:43:17.767Z,38.60
2023-01-07T07:45:46.490Z,42.00
2023-01-07T07:48:17.453Z,42.03
2023-01-07T07:50:45.966Z,39.63
2023-01-07T07:53:15.250Z,37.00
2023-01-07T07:55:43.785Z,38.03
2023-01-07T07:58:12.423Z,38.80
2023-01-07T08:00:42.316Z,39.13
2023-01-07T08:03:10.784Z,39.73
2023-01-07T08:05:42.155Z,39.07
2023-01-07T08:08:11.540Z,34.57
2023-01-07T08:10:40.161Z,37.60
2023-01-07T08:13:09.921Z,39.20
2023-01-07T08:15:38.512Z,37.10
2023-01-07T08:18:09.206Z,41.57
2023-01-07T08:20:38.837Z,37.37
2023-01-07T08:23:07.925Z,38.83
2023-01-07T08:25:36.970Z,39.17
2023-01-07T08:28:05.967Z,42.60
2023-01-07T08:30:34.458Z,40.67
2023-01-07T08:33:02.953Z,41.03
2023-01-07T08:35:32.889Z,34.87
2023-01-07T08:38:05.660Z,40.73
2023-01-07T08:40:34.544Z,38.57
2023-01-07T08:43:03.543Z,39.70
2023-01-07T08:45:32.597Z,37.50
2023-01-07T08:48:01.098Z,35.57
2023-01-07T08:50:31.391Z,40.27
2023-01-07T08:53:01.363Z,39.90
2023-01-07T08:55:29.900Z,41.77
2023-01-07T08:57:59.158Z,41.30
2023-01-07T09:00:27.783Z,38.17
2023-01-07T09:02:56.315Z,40.33
2023-01-07T09:05:25.052Z,41.70
2023-01-07T09:07:54.294Z,40.77
2023-01-07T09:10:24.419Z,39.60
2023-01-07T09:12:52.938Z,37.63
2023-01-07T09:15:21.500Z,42.30
2023-01-07T09:17:49.948Z,42.97
2023-01-07T09:20:18.495Z,40.90
2023-01-07T09:22:46.956Z,41.13
2023-01-07T09:25:15.733Z,42.23
2023-01-07T09:27:45.829Z,40.80
2023-01-07T09:30:14.595Z,41.30
2023-01-07T09:32:44.183Z,40.13
2023-01-07T09:35:13.005Z,41.03
2023-01-07T09:37:41.536Z,40.13
2023-01-07T09:40:11.061Z,39.13
2023-01-07T09:42:43.373Z,39.50
2023-01-07T09:45:17.370Z,39.73
2023-01-07T09:47:47.955Z,40.43
2023-01-07T09:50:19.061Z,39.37
2023-01-07T09:52:49.527Z,42.50
2023-01-07T09:55:20.445Z,41.10
2023-01-07T09:57:48.890Z,43.70
2023-01-07T10:00:20.590Z,42.20
2023-01-07T10:02:56.986Z,41.33
2023-01-07T10:05:31.362Z,41.03
2023-01-07T10:08:31.119Z,40.27
2023-01-07T10:10:53.807Z,42.23
2023-01-07T10:13:50.313Z,40.40
2023-01-07T10:16:22.340Z,40.53
2023-01-07T10:18:55.832Z,44.57
2023-01-07T10:21:26.081Z,42.57
2023-01-07T10:23:57.580Z,42.70
2023-01-07T10:26:31.435Z,40.67
2023-01-07T10:29:01.559Z,40.10
2023-01-07T10:31:31.858Z,40.43
2023-01-07T10:34:01.291Z,40.33
2023-01-07T10:36:30.786Z,42.70
2023-01-07T10:39:14.893Z,42.37
2023-01-07T10:41:48.819Z,40.87
2023-01-07T10:44:41.196Z,43.60
2023-01-07T10:47:15.407Z,41.13
2023-01-07T10:49:58.550Z,38.70
2023-01-07T10:52:31.295Z,36.87
2023-01-07T10:55:18.494Z,43.57
2023-01-07T10:57:47.038Z,39.07
2023-01-07T11:00:17.463Z,37.13
2023-01-07T11:02:50.768Z,42.43
2023-01-07T11:05:21.171Z,39.87
2023-01-07T11:07:52.123Z,36.33
2023-01-07T11:10:21.806Z,34.73
2023-01-07T11:12:51.860Z,44.83
2023-01-07T11:15:24.237Z,36.40
2023-01-07T11:17:55.966Z,34.10
2023-01-07T11:20:54.545Z,39.17
2023-01-07T11:23:30.594Z,34.80
2023-01-07T11:26:07.977Z,33.37
2023-01-07T11:28:36.607Z,33.47
2023-01-07T11:31:05.208Z,34.50
2023-01-07T11:34:04.159Z,31.97
2023-01-07T11:36:40.435Z,29.83
2023-01-07T11:39:11.071Z,34.47
2023-01-07T11:41:39.518Z,31.37
2023-01-07T11:44:17.227Z,31.77
2023-01-07T11:46:46.276Z,34.00
2023-01-07T11:49:23.407Z,33.77
2023-01-07T11:51:51.958Z,31.87
2023-01-07T11:54:21.939Z,35.30
2023-01-07T11:56:50.658Z,34.40
2023-01-07T11:59:29.864Z,31.63
2023-01-07T12:02:00.092Z,31.00
2023-01-07T12:04:31.120Z,34.37
2023-01-07T12:07:00.425Z,32.57
2023-01-07T12:09:30.261Z,29.47
2023-01-07T12:11:59.548Z,36.13
2023-01-07T12:14:29.629Z,33.70
2023-01-07T12:16:59.010Z,31.50
2023-01-07T12:19:34.337Z,34.53
2023-01-07T12:22:07.695Z,35.10
2023-01-07T12:24:43.727Z,34.03
2023-01-07T12:27:18.336Z,32.67
2023-01-07T12:29:52.387Z,34.67
2023-01-07T12:32:29.244Z,33.47
2023-01-07T12:35:15.295Z,35.57
2023-01-07T12:37:45.988Z,35.03
2023-01-07T12:40:20.625Z,34.87
2023-01-07T12:42:51.590Z,33.27
2023-01-07T12:45:23.126Z,37.87
2023-01-07T12:47:55.503Z,35.73
2023-01-07T12:50:27.476Z,32.43
2023-01-07T12:52:59.156Z,37.23
2023-01-07T12:55:30.460Z,35.73
2023-01-07T12:58:03.754Z,34.73
2023-01-07T13:00:33.882Z,37.10
2023-01-07T13:03:05.742Z,40.57
2023-01-07T13:05:39.304Z,36.27
2023-01-07T13:08:13.210Z,36.83
2023-01-07T13:10:42.942Z,38.97
2023-01-07T13:13:14.959Z,37.10
2023-01-07T13:15:43.674Z,35.17
2023-01-07T13:18:15.541Z,46.07
2023-01-07T13:20:53.946Z,39.00
2023-01-07T13:23:25.482Z,37.70
2023-01-07T13:26:01.858Z,45.50
2023-01-07T13:28:45.507Z,40.37
2023-01-07T13:31:31.635Z,35.27
2023-01-07T13:34:06.113Z,43.77
2023-01-07T13:36:41.201Z,40.63
2023-01-07T13:39:18.155Z,38.20
2023-01-07T13:41:53.629Z,46.07
2023-01-07T13:44:30.195Z,41.60
2023-01-07T13:46:59.251Z,38.43
2023-01-07T13:49:29.988Z,38.17
2023-01-07T13:52:13.951Z,39.57
2023-01-07T13:54:56.283Z,34.87
2023-01-07T13:57:44.123Z,37.00
2023-01-07T14:00:31.404Z,38.27
2023-01-07T14:03:01.489Z,34.93
2023-01-07T14:05:30.613Z,41.97
2023-01-07T14:08:02.175Z,39.50
2023-01-07T14:10:31.387Z,34.87
2023-01-07T14:13:13.323Z,34.27
2023-01-07T14:16:00.637Z,38.93
2023-01-07T14:18:47.003Z,36.70
2023-01-07T14:21:22.573Z,34.73
2023-01-07T14:23:57.867Z,36.57
2023-01-07T14:26:28.913Z,37.10
2023-01-07T14:29:12.239Z,32.93
2023-01-07T14:31:40.815Z,40.40
2023-01-07T14:34:10.773Z,46.43
2023-01-07T14:36:57.519Z,52.30
2023-01-07T14:39:33.691Z,52.47
2023-01-07T14:42:20.556Z,51.20
2023-01-07T14:44:49.442Z,51.27
2023-01-07T14:47:39.526Z,50.57
2023-01-07T14:50:14.715Z,53.77
2023-01-07T14:52:59.948Z,52.37
2023-01-07T14:55:55.241Z,50.60
2023-01-07T14:58:37.320Z,49.83
2023-01-07T15:01:18.989Z,50.00
2023-01-07T15:03:51.585Z,50.47
2023-01-07T15:06:24.903Z,51.50
2023-01-07T15:09:11.921Z,48.90
2023-01-07T15:12:00.380Z,47.27
2023-01-07T15:14:50.400Z,48.30
2023-01-07T15:17:19.039Z,48.67
2023-01-07T15:19:47.526Z,48.43
2023-01-07T15:22:31.129Z,52.97
2023-01-07T15:25:03.929Z,49.93
2023-01-07T15:27:35.608Z,52.37
2023-01-07T15:30:13.215Z,51.80
2023-01-07T15:32:47.370Z,46.80
2023-01-07T15:35:18.443Z,50.33
2023-01-07T15:37:47.511Z,50.37
2023-01-07T15:40:19.437Z,54.77
2023-01-07T15:42:49.180Z,55.30
2023-01-07T15:45:20.194Z,56.83
2023-01-07T15:47:49.362Z,57.53
2023-01-07T15:50:22.571Z,56.47
2023-01-07T15:52:51.580Z,54.70
2023-01-07T15:55:27.341Z,52.50
2023-01-07T15:58:00.117Z,50.13
2023-01-07T16:00:30.130Z,48.70
2023-01-07T16:02:58.840Z,49.13
2023-01-07T16:05:27.540Z,53.33
2023-01-07T16:07:56.770Z,50.23
2023-01-07T16:10:26.672Z,53.43
2023-01-07T16:12:56.537Z,50.13
2023-01-07T16:15:30.954Z,45.97
2023-01-07T16:17:59.988Z,41.27
2023-01-07T16:20:29.840Z,39.63
2023-01-07T16:23:06.680Z,36.40
2023-01-07T16:25:36.610Z,34.13
2023-01-07T16:28:06.500Z,32.50
2023-01-07T16:30:40.132Z,31.10
2023-01-07T16:33:08.615Z,29.90
2023-01-07T16:35:39.371Z,28.43
2023-01-07T16:38:08.213Z,27.37
2023-01-07T16:40:37.762Z,27.80
2023-01-07T16:43:06.655Z,27.90
2023-01-07T16:45:38.203Z,27.10
2023-01-07T16:48:19.734Z,28.47
2023-01-07T16:50:49.201Z,25.70
2023-01-07T16:53:28.928Z,25.70
2023-01-07T16:56:10.200Z,25.60
2023-01-07T16:58:41.647Z,25.33
2023-01-07T17:01:12.223Z,25.03
2023-01-07T17:03:48.856Z,25.80
2023-01-07T17:06:18.908Z,25.40
2023-01-07T17:08:50.744Z,25.77
2023-01-07T17:11:21.963Z,24.80
2023-01-07T17:13:50.410Z,25.13
2023-01-07T17:16:30.451Z,24.37
2023-01-07T17:18:59.402Z,23.13
2023-01-07T17:21:35.598Z,24.70
2023-01-07T17:24:04.034Z,24.60
2023-01-07T17:26:40.947Z,25.37
2023-01-07T17:29:13.235Z,23.90
2023-01-07T17:31:43.740Z,24.47
2023-01-07T17:34:13.317Z,24.30
2023-01-07T17:36:41.760Z,25.37
2023-01-07T17:39:10.308Z,24.57
2023-01-07T17:41:56.840Z,25.30
2023-01-07T17:44:25.310Z,24.03
2023-01-07T17:46:55.317Z,24.90
2023-01-07T17:49:23.821Z,25.00
2023-01-07T17:51:54.603Z,23.40
2023-01-07T17:54:24.272Z,24.70
2023-01-07T17:56:53.196Z,26.33
2023-01-07T17:59:22.427Z,25.70
2023-01-07T18:01:51.851Z,26.73
2023-01-07T18:04:22.426Z,26.23
2023-01-07T18:06:50.888Z,26.83
2023-01-07T18:09:19.386Z,26.50
2023-01-07T18:12:05.718Z,25.17
2023-01-07T18:14:34.210Z,25.53
2023-01-07T18:17:02.813Z,26.43
2023-01-07T18:19:32.747Z,27.63
2023-01-07T18:22:01.225Z,29.30
2023-01-07T18:24:29.655Z,28.47
2023-01-07T18:26:58.145Z,26.77
2023-01-07T18:29:26.638Z,28.53
2023-01-07T18:31:55.176Z,26.63
2023-01-07T18:34:23.674Z,27.83
2023-01-07T18:36:54.442Z,28.10
2023-01-07T18:39:22.920Z,29.13
2023-01-07T18:41:53.860Z,26.97
2023-01-07T18:44:23.340Z,26.63
2023-01-07T18:46:52.074Z,27.47
2023-01-07T18:49:20.572Z,26.67
2023-01-07T18:51:49.086Z,27.77
2023-01-07T18:54:19.384Z,26.87
2023-01-07T18:56:47.850Z,27.87
2023-01-07T18:59:16.374Z,27.40
2023-01-07T19:01:44.957Z,28.17
2023-01-07T19:04:13.479Z,28.00
2023-01-07T19:06:42.167Z,28.63
2023-01-07T19:09:10.755Z,29.43
2023-01-07T19:11:41.929Z,32.57
2023-01-07T19:14:10.917Z,29.87
2023-01-07T19:16:39.855Z,30.33
2023-01-07T19:19:09.124Z,30.47
2023-01-07T19:21:37.693Z,30.37
2023-01-07T19:24:06.454Z,29.73
2023-01-07T19:26:35.325Z,29.17
2023-01-07T19:29:05.301Z,29.83
2023-01-07T19:31:34.162Z,28.97
2023-01-07T19:34:04.291Z,28.97
2023-01-07T19:36:33.492Z,29.13
2023-01-07T19:39:01.957Z,29.63
2023-01-07T19:41:30.411Z,28.63
2023-01-07T19:44:00.281Z,27.77
2023-01-07T19:46:34.395Z,29.50
2023-01-07T19:49:02.899Z,29.33
2023-01-07T19:51:31.391Z,29.10
2023-01-07T19:53:59.993Z,27.93
2023-01-07T19:56:30.293Z,27.73
2023-01-07T19:58:59.143Z,28.27
2023-01-07T20:01:28.933Z,29.63
2023-01-07T20:03:59.704Z,29.17
2023-01-07T20:06:29.755Z,29.83
2023-01-07T20:09:00.561Z,29.30
2023-01-07T20:11:29.029Z,30.47
2023-01-07T20:13:57.508Z,30.63
2023-01-07T20:16:26.163Z,30.03
2023-01-07T20:18:55.470Z,28.70
2023-01-07T20:21:26.522Z,30.50
2023-01-07T20:23:55.231Z,29.87
2023-01-07T20:26:24.840Z,28.47
2023-01-07T20:28:53.525Z,28.77
2023-01-07T20:31:23.380Z,29.00
2023-01-07T20:33:52.273Z,30.63
2023-01-07T20:36:21.438Z,29.87
2023-01-07T20:38:51.775Z,30.87
2023-01-07T20:41:21.036Z,32.47
2023-01-07T20:43:52.331Z,30.33
2023-01-07T20:46:21.047Z,33.27
2023-01-07T20:48:49.952Z,33.50
2023-01-07T20:51:18.765Z,34.23
2023-01-07T20:53:47.918Z,31.67
2023-01-07T20:56:19.815Z,33.67
2023-01-07T20:58:48.812Z,35.20
2023-01-07T21:01:18.212Z,35.03
2023-01-07T21:03:46.998Z,35.30
2023-01-07T21:06:17.432Z,35.80
2023-01-07T21:08:46.884Z,36.13
2023-01-07T21:11:16.726Z,36.77
2023-01-07T21:13:46.641Z,35.03
2023-01-07T21:16:15.581Z,37.20
2023-01-07T21:18:44.159Z,36.27
2023-01-07T21:21:13.679Z,34.77
2023-01-07T21:23:42.546Z,36.90
2023-01-07T21:26:12.915Z,37.80
2023-01-07T21:28:41.555Z,35.87
2023-01-07T21:31:13.891Z,37.67
2023-01-07T21:33:42.450Z,38.63
2023-01-07T21:36:11.401Z,36.97
2023-01-07T21:38:39.904Z,37.63
2023-01-07T21:41:08.853Z,38.00
2023-01-07T21:43:37.441Z,38.10
2023-01-07T21:46:07.222Z,36.93
2023-01-07T21:48:37.695Z,38.50
2023-01-07T21:51:07.502Z,37.63
2023-01-07T21:53:36.697Z,36.93
2023-01-07T21:56:06.728Z,37.53
2023-01-07T21:58:36.012Z,35.27
2023-01-07T22:01:04.656Z,37.37
2023-01-07T22:03:33.194Z,37.10
2023-01-07T22:06:04.092Z,39.23
2023-01-07T22:08:32.710Z,38.60
2023-01-07T22:11:01.179Z,38.50
2023-01-07T22:13:29.632Z,37.23
2023-01-07T22:15:58.089Z,38.83
2023-01-07T22:18:26.896Z,37.40
2023-01-07T22:20:56.221Z,39.43
2023-01-07T22:23:26.126Z,36.17
2023-01-07T22:25:54.665Z,38.67
2023-01-07T22:28:24.960Z,37.37
2023-01-07T22:30:54.688Z,37.77
2023-01-07T22:33:23.752Z,37.77
2023-01-07T22:35:52.986Z,36.53
2023-01-07T22:38:22.550Z,37.00
2023-01-07T22:40:52.783Z,38.03
2023-01-07T22:43:23.999Z,37.90
2023-01-07T22:45:54.491Z,37.70
2023-01-07T22:48:25.054Z,36.20
2023-01-07T22:50:54.270Z,37.50
2023-01-07T22:53:23.974Z,36.73
2023-01-07T22:55:54.095Z,37.10
2023-01-07T22:58:22.585Z,36.63
2023-01-07T23:01:08.270Z,37.37
2023-01-07T23:03:36.906Z,36.63
2023-01-07T23:06:05.565Z,37.40
2023-01-07T23:08:34.090Z,36.97
2023-01-07T23:11:03.997Z,36.40
2023-01-07T23:13:32.629Z,36.77
2023-01-07T23:16:02.691Z,37.17
2023-01-07T23:18:31.378Z,36.60
2023-01-07T23:20:59.942Z,36.53
2023-01-07T23:23:28.465Z,35.60
2023-01-07T23:25:56.908Z,36.37
2023-01-07T23:28:26.727Z,36.07
2023-01-07T23:30:55.189Z,35.37
2023-01-07T23:33:23.678Z,35.77
2023-01-07T23:35:52.135Z,34.70
2023-01-07T23:38:20.601Z,35.77
2023-01-07T23:40:49.092Z,36.87
2023-01-07T23:43:17.553Z,36.23
2023-01-07T23:45:47.471Z,34.63
2023-01-07T23:48:16.214Z,36.30
2023-01-07T23:50:44.651Z,35.57
2023-01-07T23:53:13.160Z,34.50
2023-01-07T23:55:41.598Z,35.07
2023-01-07T23:58:10.099Z,35.27
